createdAt,value
2023-02-13T05:23:13.068Z,39.40
2023-02-13T05:26:15.790Z,42.60
2023-02-13T05:29:22.743Z,37.20
2023-02-13T05:32:25.357Z,41.33
2023-02-13T05:35:27.929Z,41.80
2023-02-13T05:38:30.585Z,34.88
2023-02-13T05:41:33.193Z,44.08
2023-02-13T05:44:35.733Z,37.10
2023-02-13T05:47:38.368Z,32.20
2023-02-13T05:50:40.920Z,51.78
2023-02-13T05:53:43.467Z,40.85
2023-02-13T05:56:46.267Z,33.63
2023-02-13T05:59:48.826Z,25.60
2023-02-13T06:02:51.406Z,42.47
2023-02-13T06:05:54.633Z,39.92
2023-02-13T06:08:57.217Z,43.83
2023-02-13T06:11:59.769Z,55.55
2023-02-13T06:15:02.537Z,59.78
2023-02-13T06:18:05.320Z,49.58
2023-02-13T06:21:08.509Z,43.92
2023-02-13T06:24:11.208Z,60.55
2023-02-13T06:27:13.942Z,70.53
2023-02-13T06:30:16.776Z,75.50
2023-02-13T06:33:19.636Z,80.12
2023-02-13T06:36:22.310Z,56.20
2023-02-13T06:39:25.194Z,52.53
2023-02-13T06:42:27.957Z,48.42
2023-02-13T06:45:30.507Z,45.92
2023-02-13T06:48:33.680Z,34.90
2023-02-13T06:51:36.647Z,29.33
2023-02-13T06:54:47.376Z,29.77
2023-02-13T06:57:50.779Z,30.00
2023-02-13T07:00:53.400Z,24.10
2023-02-13T07:03:56.103Z,27.85
2023-02-13T07:06:58.722Z,31.65
2023-02-13T07:10:01.355Z,22.55
2023-02-13T07:13:06.231Z,27.02
2023-02-13T07:16:08.952Z,27.30
2023-02-13T07:19:11.779Z,24.75
2023-02-13T07:22:14.393Z,29.15
2023-02-13T07:25:17.090Z,23.62
2023-02-13T07:28:30.443Z,21.42
2023-02-13T07:31:36.027Z,27.75
2023-02-13T07:34:55.722Z,31.30
2023-02-13T07:38:02.363Z,25.80
2023-02-13T07:41:05.051Z,37.47
2023-02-13T07:44:07.699Z,33.33
2023-02-13T07:47:10.498Z,36.00
2023-02-13T07:50:13.283Z,40.78
2023-02-13T07:53:15.843Z,27.75
2023-02-13T07:56:18.640Z,27.45
2023-02-13T07:59:21.264Z,19.42
2023-02-13T08:02:23.886Z,20.62
2023-02-13T08:05:26.612Z,20.17
2023-02-13T08:08:29.197Z,21.83
2023-02-13T08:11:50.466Z,24.27
2023-02-13T08:14:53.914Z,23.40
2023-02-13T08:17:56.514Z,22.30
2023-02-13T08:20:58.991Z,24.08
2023-02-13T08:24:01.559Z,19.27
2023-02-13T08:27:04.175Z,20.42
2023-02-13T08:30:07.369Z,19.37
2023-02-13T08:33:09.909Z,18.23
2023-02-13T08:36:12.411Z,20.15
2023-02-13T08:39:14.997Z,19.10
2023-02-13T08:42:17.539Z,20.08
2023-02-13T08:45:20.375Z,15.57
2023-02-13T08:48:22.932Z,21.00
2023-02-13T08:51:25.662Z,21.12
2023-02-13T08:54:28.329Z,19.40
2023-02-13T08:57:31.548Z,20.77
2023-02-13T09:00:34.787Z,19.35
2023-02-13T09:03:37.533Z,25.12
2023-02-13T09:06:40.207Z,26.55
2023-02-13T09:09:44.799Z,22.83
2023-02-13T09:12:54.240Z,22.50
2023-02-13T09:16:01.333Z,19.60
2023-02-13T09:19:04.460Z,20.67
2023-02-13T09:22:07.555Z,26.15
2023-02-13T09:25:11.266Z,22.48
2023-02-13T09:28:14.160Z,20.55
2023-02-13T09:31:18.907Z,30.17
2023-02-13T09:34:22.053Z,23.95
2023-02-13T09:40:56.891Z,23.02
2023-02-13T09:44:34.187Z,19.73
2023-02-13T09:47:40.730Z,21.60
2023-02-13T09:50:43.772Z,22.25
2023-02-13T09:54:04.316Z,19.90
2023-02-13T09:57:16.640Z,21.52
2023-02-13T10:00:35.980Z,23.00
2023-02-13T10:04:04.976Z,23.35
2023-02-13T10:07:42.780Z,21.95
2023-02-13T10:10:51.969Z,23.90
2023-02-13T10:14:13.296Z,24.73
2023-02-13T10:17:22.329Z,23.15
2023-02-13T10:20:48.047Z,27.60
2023-02-13T10:23:55.542Z,28.15
2023-02-13T10:26:58.517Z,24.00
2023-02-13T10:30:07.934Z,24.23
2023-02-13T10:33:31.812Z,24.80
2023-02-13T10:36:34.812Z,22.13
2023-02-13T10:39:37.382Z,22.73
2023-02-13T10:43:02.445Z,30.75
2023-02-13T10:46:15.838Z,30.50
2023-02-13T10:49:28.233Z,31.37
2023-02-13T10:52:39.721Z,24.92
2023-02-13T10:56:14.670Z,27.13
2023-02-13T10:59:29.110Z,29.17
2023-02-13T11:02:37.055Z,27.33
2023-02-13T11:05:40.236Z,32.22
2023-02-13T11:08:46.039Z,29.87
2023-02-13T11:11:50.008Z,33.25
2023-02-13T11:15:05.633Z,26.45
2023-02-13T11:18:18.861Z,28.90
2023-02-13T11:21:22.451Z,28.55
2023-02-13T11:24:26.422Z,30.15
2023-02-13T11:27:32.472Z,27.42
2023-02-13T11:30:36.353Z,33.47
2023-02-13T11:33:39.037Z,31.12
2023-02-13T11:36:41.619Z,32.95
2023-02-13T11:39:45.552Z,28.80
2023-02-13T11:42:48.544Z,31.40
2023-02-13T11:46:07.555Z,37.30
2023-02-13T11:49:29.544Z,34.30
2023-02-13T11:52:34.109Z,35.13
2023-02-13T11:55:42.851Z,32.70
2023-02-13T11:58:46.574Z,28.92
2023-02-13T12:02:14.038Z,34.42
2023-02-13T12:05:37.875Z,32.55
2023-02-13T12:08:44.352Z,27.98
2023-02-13T12:11:54.728Z,27.13
2023-02-13T12:14:58.171Z,30.77
2023-02-13T12:18:43.366Z,21.85
2023-02-13T12:22:10.536Z,23.10
2023-02-13T12:25:28.372Z,27.90
2023-02-13T12:28:46.184Z,28.23
2023-02-13T12:32:14.154Z,23.90
2023-02-13T12:35:32.876Z,26.00
2023-02-13T12:38:54.422Z,25.08
2023-02-13T12:42:23.947Z,29.20
2023-02-13T12:45:42.848Z,27.15
2023-02-13T12:48:52.783Z,34.03
2023-02-13T12:52:24.552Z,36.40
2023-02-13T12:55:39.728Z,30.23
2023-02-13T12:59:00.834Z,31.20
2023-02-13T13:02:23.973Z,28.15
2023-02-13T13:05:27.619Z,33.63
2023-02-13T13:08:48.708Z,43.28
2023-02-13T13:11:52.080Z,29.58
2023-02-13T13:15:00.345Z,25.25
2023-02-13T13:18:31.894Z,29.48
2023-02-13T13:22:05.577Z,32.75
2023-02-13T13:25:17.481Z,47.33
2023-02-13T13:28:29.847Z,47.80
2023-02-13T13:31:32.556Z,36.25
2023-02-13T13:34:35.686Z,24.42
2023-02-13T13:37:42.690Z,30.65
2023-02-13T13:40:52.986Z,40.90
2023-02-13T13:44:01.442Z,35.28
2023-02-13T13:47:32.184Z,35.72
2023-02-13T13:50:37.701Z,43.53
2023-02-13T13:54:09.378Z,44.47
2023-02-13T13:57:12.798Z,36.65
2023-02-13T14:00:16.968Z,39.42
2023-02-13T14:03:39.755Z,41.05
2023-02-13T14:07:02.500Z,40.55
2023-02-13T14:10:06.324Z,42.38
2023-02-13T14:13:08.953Z,37.17
2023-02-13T14:16:11.850Z,36.20
2023-02-13T14:19:33.602Z,32.70
2023-02-13T14:22:36.336Z,33.33
2023-02-13T14:25:38.919Z,32.45
2023-02-13T14:29:02.458Z,40.70
2023-02-13T14:32:07.381Z,45.53
2023-02-13T14:35:27.832Z,52.08
2023-02-13T14:38:30.488Z,34.15
2023-02-13T14:41:57.821Z,38.22
2023-02-13T14:45:00.699Z,46.53
2023-02-13T14:48:06.712Z,53.70
2023-02-13T14:51:16.534Z,66.10
2023-02-13T14:54:26.103Z,48.17
2023-02-13T14:57:31.805Z,47.55
2023-02-13T15:00:55.520Z,43.65
2023-02-13T15:04:15.702Z,45.50
2023-02-13T15:07:26.992Z,42.30
2023-02-13T15:10:52.557Z,39.08
2023-02-13T15:13:55.071Z,42.58
2023-02-13T15:17:40.244Z,64.07
2023-02-13T15:20:42.841Z,37.92
2023-02-13T15:23:45.433Z,44.00
2023-02-13T15:27:01.579Z,54.83
2023-02-13T15:30:22.524Z,51.85
2023-02-13T15:33:29.759Z,75.25
2023-02-13T15:36:39.700Z,96.45
2023-02-13T15:39:42.329Z,104.18
2023-02-13T15:42:44.903Z,92.12
2023-02-13T15:45:47.461Z,94.60
2023-02-13T15:48:50.090Z,95.40
2023-02-13T15:52:03.064Z,61.95
2023-02-13T15:55:06.046Z,63.65
2023-02-13T15:58:13.021Z,55.42
2023-02-13T16:01:15.690Z,45.53
2023-02-13T16:04:18.360Z,23.70
2023-02-13T16:07:20.966Z,27.87
2023-02-13T16:10:35.914Z,25.33
2023-02-13T16:13:38.426Z,26.48
2023-02-13T16:16:50.059Z,22.08
2023-02-13T16:19:58.900Z,24.37
2023-02-13T16:23:02.951Z,25.52
2023-02-13T16:26:07.473Z,31.70
2023-02-13T16:29:20.415Z,24.80
2023-02-13T16:32:32.806Z,22.80
